Terminal Aerodrome Forecast
Issued by NWS Salt Lake City, UT

Home | Current Version | Previous Version | Text Only | Print | Product List | Glossary On
Versions: 1 2 3 4 5 6 7 8 9 10 11 12 13 14 15 16 17
000
FTUS45 KSLC 270527
TAFCDC
TAF
KCDC 270527Z 2706/2806 19008KT P6SM OVC070
     FM271500 20010G17KT P6SM BKN070 BKN100
     FM272100 33008KT 6SM -RA SCT010 BKN035
     FM280100 02008KT P6SM VCSH SCT010 BKN035=

USA.gov is the U.S. government's official web portal to all federal, state and local government web resources and services.